sensor_id;sensor_type;location;lat;lon;timestamp;P1;durP1;ratioP1;P2;durP2;ratioP2
40116;SDS011;25829;50.228;18.936;2023-11-21T00:01:16;7.03;;;4.23;;
40116;SDS011;25829;50.228;18.936;2023-11-21T00:04:26;6.97;;;4.80;;
40116;SDS011;25829;50.228;18.936;2023-11-21T00:07:28;7.23;;;4.90;;
40116;SDS011;25829;50.228;18.936;2023-11-21T00:10:29;6.00;;;4.20;;
40116;SDS011;25829;50.228;18.936;2023-11-21T00:13:30;6.77;;;4.93;;
40116;SDS011;25829;50.228;18.936;2023-11-21T00:16:31;7.93;;;4.93;;
40116;SDS011;25829;50.228;18.936;2023-11-21T00:19:34;6.93;;;4.70;;
40116;SDS011;25829;50.228;18.936;2023-11-21T00:22:52;8.83;;;4.53;;
40116;SDS011;25829;50.228;18.936;2023-11-21T00:25:53;6.53;;;4.93;;
40116;SDS011;25829;50.228;18.936;2023-11-21T00:28:54;6.73;;;4.60;;
40116;SDS011;25829;50.228;18.936;2023-11-21T00:31:57;9.57;;;5.33;;
40116;SDS011;25829;50.228;18.936;2023-11-21T00:34:58;9.00;;;6.03;;
40116;SDS011;25829;50.228;18.936;2023-11-21T00:37:59;8.73;;;5.60;;
40116;SDS011;25829;50.228;18.936;2023-11-21T00:41:03;8.33;;;5.77;;
40116;SDS011;25829;50.228;18.936;2023-11-21T00:44:04;8.03;;;5.80;;
40116;SDS011;25829;50.228;18.936;2023-11-21T00:47:06;10.07;;;6.43;;
40116;SDS011;25829;50.228;18.936;2023-11-21T00:50:10;12.07;;;8.10;;
40116;SDS011;25829;50.228;18.936;2023-11-21T00:53:11;10.03;;;6.43;;
40116;SDS011;25829;50.228;18.936;2023-11-21T00:56:12;11.13;;;6.77;;
40116;SDS011;25829;50.228;18.936;2023-11-21T00:59:13;8.93;;;6.17;;
40116;SDS011;25829;50.228;18.936;2023-11-21T01:02:15;7.50;;;5.83;;
40116;SDS011;25829;50.228;18.936;2023-11-21T01:05:16;8.83;;;5.60;;
40116;SDS011;25829;50.228;18.936;2023-11-21T01:08:17;7.30;;;4.13;;
40116;SDS011;25829;50.228;18.936;2023-11-21T01:11:17;5.93;;;4.23;;
40116;SDS011;25829;50.228;18.936;2023-11-21T01:14:24;8.43;;;4.43;;
40116;SDS011;25829;50.228;18.936;2023-11-21T01:17:27;5.90;;;3.80;;
40116;SDS011;25829;50.228;18.936;2023-11-21T01:20:27;4.30;;;3.57;;
40116;SDS011;25829;50.228;18.936;2023-11-21T01:23:31;3.80;;;3.03;;
40116;SDS011;25829;50.228;18.936;2023-11-21T01:26:32;3.20;;;2.80;;
40116;SDS011;25829;50.228;18.936;2023-11-21T01:29:33;4.27;;;3.37;;
40116;SDS011;25829;50.228;18.936;2023-11-21T01:32:35;4.50;;;2.80;;
40116;SDS011;25829;50.228;18.936;2023-11-21T01:35:37;4.30;;;2.80;;
40116;SDS011;25829;50.228;18.936;2023-11-21T01:38:38;4.43;;;2.97;;
40116;SDS011;25829;50.228;18.936;2023-11-21T01:41:39;4.43;;;3.23;;
40116;SDS011;25829;50.228;18.936;2023-11-21T01:44:40;4.03;;;3.10;;
40116;SDS011;25829;50.228;18.936;2023-11-21T01:47:41;6.00;;;3.77;;
40116;SDS011;25829;50.228;18.936;2023-11-21T01:50:44;5.53;;;3.50;;
40116;SDS011;25829;50.228;18.936;2023-11-21T01:53:45;3.10;;;2.53;;
40116;SDS011;25829;50.228;18.936;2023-11-21T01:56:47;4.20;;;2.87;;
40116;SDS011;25829;50.228;18.936;2023-11-21T01:59:48;4.07;;;3.27;;
40116;SDS011;25829;50.228;18.936;2023-11-21T02:02:50;3.83;;;2.80;;
40116;SDS011;25829;50.228;18.936;2023-11-21T02:05:52;4.43;;;2.60;;
40116;SDS011;25829;50.228;18.936;2023-11-21T02:08:54;3.83;;;3.20;;
40116;SDS011;25829;50.228;18.936;2023-11-21T02:11:54;4.40;;;2.90;;
40116;SDS011;25829;50.228;18.936;2023-11-21T02:14:55;3.47;;;2.73;;
40116;SDS011;25829;50.228;18.936;2023-11-21T02:17:59;4.33;;;2.80;;
40116;SDS011;25829;50.228;18.936;2023-11-21T02:21:03;4.10;;;2.60;;
40116;SDS011;25829;50.228;18.936;2023-11-21T02:24:05;3.97;;;2.73;;
40116;SDS011;25829;50.228;18.936;2023-11-21T02:27:06;7.97;;;3.23;;
40116;SDS011;25829;50.228;18.936;2023-11-21T02:30:07;7.73;;;2.93;;
40116;SDS011;25829;50.228;18.936;2023-11-21T02:33:12;8.20;;;4.03;;
40116;SDS011;25829;50.228;18.936;2023-11-21T02:36:13;5.80;;;3.10;;
40116;SDS011;25829;50.228;18.936;2023-11-21T02:39:14;5.80;;;3.53;;
40116;SDS011;25829;50.228;18.936;2023-11-21T02:42:29;4.53;;;3.43;;
40116;SDS011;25829;50.228;18.936;2023-11-21T02:45:30;5.40;;;3.73;;
40116;SDS011;25829;50.228;18.936;2023-11-21T02:48:31;5.23;;;3.23;;
40116;SDS011;25829;50.228;18.936;2023-11-21T02:51:32;4.80;;;3.00;;
40116;SDS011;25829;50.228;18.936;2023-11-21T02:54:33;6.13;;;3.00;;
40116;SDS011;25829;50.228;18.936;2023-11-21T02:57:39;5.13;;;3.20;;
40116;SDS011;25829;50.228;18.936;2023-11-21T03:00:40;4.33;;;3.47;;
40116;SDS011;25829;50.228;18.936;2023-11-21T03:03:42;9.37;;;3.67;;
40116;SDS011;25829;50.228;18.936;2023-11-21T03:06:43;6.20;;;3.87;;
40116;SDS011;25829;50.228;18.936;2023-11-21T03:09:45;4.33;;;3.30;;
40116;SDS011;25829;50.228;18.936;2023-11-21T03:12:46;3.50;;;3.20;;
40116;SDS011;25829;50.228;18.936;2023-11-21T03:15:47;6.80;;;3.30;;
40116;SDS011;25829;50.228;18.936;2023-11-21T03:18:47;5.50;;;2.90;;
40116;SDS011;25829;50.228;18.936;2023-11-21T03:21:48;3.50;;;3.20;;
40116;SDS011;25829;50.228;18.936;2023-11-21T03:24:49;6.40;;;3.43;;
40116;SDS011;25829;50.228;18.936;2023-11-21T03:27:50;4.60;;;3.47;;
40116;SDS011;25829;50.228;18.936;2023-11-21T03:30:51;4.00;;;3.60;;
40116;SDS011;25829;50.228;18.936;2023-11-21T03:33:52;5.50;;;3.60;;
40116;SDS011;25829;50.228;18.936;2023-11-21T03:36:54;4.73;;;3.90;;
40116;SDS011;25829;50.228;18.936;2023-11-21T03:39:55;7.37;;;3.50;;
40116;SDS011;25829;50.228;18.936;2023-11-21T03:42:56;7.00;;;3.83;;
40116;SDS011;25829;50.228;18.936;2023-11-21T03:45:57;5.50;;;3.70;;
40116;SDS011;25829;50.228;18.936;2023-11-21T03:48:58;7.10;;;3.50;;
40116;SDS011;25829;50.228;18.936;2023-11-21T03:51:59;6.50;;;3.30;;
40116;SDS011;25829;50.228;18.936;2023-11-21T03:55:03;4.87;;;3.57;;
40116;SDS011;25829;50.228;18.936;2023-11-21T03:58:04;6.30;;;4.07;;
40116;SDS011;25829;50.228;18.936;2023-11-21T04:01:05;7.23;;;4.00;;
40116;SDS011;25829;50.228;18.936;2023-11-21T04:04:06;4.77;;;4.10;;
40116;SDS011;25829;50.228;18.936;2023-11-21T04:07:07;5.20;;;3.70;;
40116;SDS011;25829;50.228;18.936;2023-11-21T04:10:08;6.70;;;4.30;;
40116;SDS011;25829;50.228;18.936;2023-11-21T04:13:09;5.57;;;4.00;;
40116;SDS011;25829;50.228;18.936;2023-11-21T04:16:10;6.30;;;3.93;;
40116;SDS011;25829;50.228;18.936;2023-11-21T04:19:11;6.67;;;3.90;;
40116;SDS011;25829;50.228;18.936;2023-11-21T04:22:18;10.27;;;4.57;;
40116;SDS011;25829;50.228;18.936;2023-11-21T04:25:18;5.03;;;4.13;;
40116;SDS011;25829;50.228;18.936;2023-11-21T04:28:19;4.23;;;3.83;;
40116;SDS011;25829;50.228;18.936;2023-11-21T04:31:20;5.23;;;3.60;;
40116;SDS011;25829;50.228;18.936;2023-11-21T04:34:24;5.30;;;3.60;;
40116;SDS011;25829;50.228;18.936;2023-11-21T04:37:25;6.97;;;4.50;;
40116;SDS011;25829;50.228;18.936;2023-11-21T04:40:25;7.30;;;4.67;;
40116;SDS011;25829;50.228;18.936;2023-11-21T04:43:27;8.33;;;4.60;;
40116;SDS011;25829;50.228;18.936;2023-11-21T04:46:29;8.53;;;5.10;;
40116;SDS011;25829;50.228;18.936;2023-11-21T04:49:30;7.10;;;4.30;;
40116;SDS011;25829;50.228;18.936;2023-11-21T04:52:31;4.47;;;3.77;;
40116;SDS011;25829;50.228;18.936;2023-11-21T04:55:33;5.33;;;4.10;;
40116;SDS011;25829;50.228;18.936;2023-11-21T04:58:34;7.67;;;5.13;;
40116;SDS011;25829;50.228;18.936;2023-11-21T05:01:35;8.53;;;5.90;;
40116;SDS011;25829;50.228;18.936;2023-11-21T05:04:36;7.50;;;5.70;;
40116;SDS011;25829;50.228;18.936;2023-11-21T05:07:38;9.07;;;6.90;;
40116;SDS011;25829;50.228;18.936;2023-11-21T05:10:47;7.93;;;6.13;;
40116;SDS011;25829;50.228;18.936;2023-11-21T05:13:49;9.67;;;6.10;;
40116;SDS011;25829;50.228;18.936;2023-11-21T05:16:58;10.60;;;6.67;;
40116;SDS011;25829;50.228;18.936;2023-11-21T05:19:59;11.43;;;6.47;;
40116;SDS011;25829;50.228;18.936;2023-11-21T05:23:04;7.67;;;6.13;;
40116;SDS011;25829;50.228;18.936;2023-11-21T05:26:05;10.47;;;6.37;;
40116;SDS011;25829;50.228;18.936;2023-11-21T05:29:05;7.13;;;5.60;;
40116;SDS011;25829;50.228;18.936;2023-11-21T05:32:07;8.73;;;5.53;;
40116;SDS011;25829;50.228;18.936;2023-11-21T05:35:10;8.33;;;4.93;;
40116;SDS011;25829;50.228;18.936;2023-11-21T05:38:15;6.77;;;4.97;;
40116;SDS011;25829;50.228;18.936;2023-11-21T05:41:16;7.07;;;5.40;;
40116;SDS011;25829;50.228;18.936;2023-11-21T05:44:17;6.13;;;5.33;;
40116;SDS011;25829;50.228;18.936;2023-11-21T05:47:18;6.97;;;5.47;;
40116;SDS011;25829;50.228;18.936;2023-11-21T05:50:19;9.63;;;5.50;;
40116;SDS011;25829;50.228;18.936;2023-11-21T05:53:19;14.20;;;7.63;;
40116;SDS011;25829;50.228;18.936;2023-11-21T05:56:20;12.20;;;7.20;;
40116;SDS011;25829;50.228;18.936;2023-11-21T05:59:23;7.63;;;6.00;;
40116;SDS011;25829;50.228;18.936;2023-11-21T06:02:24;7.73;;;5.40;;
40116;SDS011;25829;50.228;18.936;2023-11-21T06:05:26;6.83;;;6.00;;
40116;SDS011;25829;50.228;18.936;2023-11-21T06:08:27;9.67;;;6.50;;
40116;SDS011;25829;50.228;18.936;2023-11-21T06:11:27;10.33;;;7.27;;
40116;SDS011;25829;50.228;18.936;2023-11-21T06:14:31;11.07;;;8.20;;
40116;SDS011;25829;50.228;18.936;2023-11-21T06:34:58;8.57;;;6.10;;
40116;SDS011;25829;50.228;18.936;2023-11-21T06:38:03;8.47;;;6.03;;
40116;SDS011;25829;50.228;18.936;2023-11-21T06:41:04;12.27;;;6.60;;
40116;SDS011;25829;50.228;18.936;2023-11-21T06:44:05;10.57;;;7.97;;
40116;SDS011;25829;50.228;18.936;2023-11-21T06:47:05;8.60;;;6.73;;
40116;SDS011;25829;50.228;18.936;2023-11-21T06:50:15;9.33;;;6.33;;
40116;SDS011;25829;50.228;18.936;2023-11-21T06:53:20;7.87;;;6.03;;
40116;SDS011;25829;50.228;18.936;2023-11-21T06:56:20;8.80;;;6.30;;
40116;SDS011;25829;50.228;18.936;2023-11-21T06:59:21;9.50;;;6.13;;
40116;SDS011;25829;50.228;18.936;2023-11-21T07:02:22;7.47;;;5.87;;
40116;SDS011;25829;50.228;18.936;2023-11-21T07:05:24;8.03;;;6.13;;
40116;SDS011;25829;50.228;18.936;2023-11-21T07:08:24;7.60;;;6.23;;
40116;SDS011;25829;50.228;18.936;2023-11-21T07:11:25;12.13;;;6.67;;
40116;SDS011;25829;50.228;18.936;2023-11-21T07:14:26;10.40;;;7.47;;
40116;SDS011;25829;50.228;18.936;2023-11-21T07:17:27;10.70;;;7.50;;
40116;SDS011;25829;50.228;18.936;2023-11-21T07:20:28;10.53;;;7.87;;
40116;SDS011;25829;50.228;18.936;2023-11-21T07:23:33;10.83;;;7.53;;
40116;SDS011;25829;50.228;18.936;2023-11-21T07:26:34;10.50;;;7.80;;
40116;SDS011;25829;50.228;18.936;2023-11-21T07:29:35;10.27;;;8.07;;
40116;SDS011;25829;50.228;18.936;2023-11-21T07:32:36;11.63;;;7.13;;
40116;SDS011;25829;50.228;18.936;2023-11-21T07:35:39;12.33;;;7.57;;
40116;SDS011;25829;50.228;18.936;2023-11-21T07:38:41;9.33;;;7.40;;
40116;SDS011;25829;50.228;18.936;2023-11-21T07:42:01;11.60;;;7.30;;
40116;SDS011;25829;50.228;18.936;2023-11-21T07:45:03;8.83;;;7.17;;
40116;SDS011;25829;50.228;18.936;2023-11-21T07:48:05;13.50;;;8.87;;
40116;SDS011;25829;50.228;18.936;2023-11-21T07:51:12;10.83;;;8.33;;
40116;SDS011;25829;50.228;18.936;2023-11-21T07:54:15;13.07;;;8.33;;
40116;SDS011;25829;50.228;18.936;2023-11-21T07:57:16;13.03;;;8.20;;
40116;SDS011;25829;50.228;18.936;2023-11-21T08:07:38;12.43;;;8.10;;
40116;SDS011;25829;50.228;18.936;2023-11-21T08:10:39;10.87;;;7.60;;
40116;SDS011;25829;50.228;18.936;2023-11-21T08:13:40;10.40;;;7.33;;
40116;SDS011;25829;50.228;18.936;2023-11-21T08:16:41;10.70;;;7.10;;
40116;SDS011;25829;50.228;18.936;2023-11-21T08:19:41;9.40;;;6.93;;
40116;SDS011;25829;50.228;18.936;2023-11-21T08:22:43;8.73;;;6.73;;
40116;SDS011;25829;50.228;18.936;2023-11-21T08:25:45;11.43;;;7.70;;
40116;SDS011;25829;50.228;18.936;2023-11-21T08:28:46;13.90;;;7.90;;
40116;SDS011;25829;50.228;18.936;2023-11-21T08:31:47;11.93;;;8.00;;
40116;SDS011;25829;50.228;18.936;2023-11-21T08:34:48;10.93;;;7.27;;
40116;SDS011;25829;50.228;18.936;2023-11-21T08:37:51;17.03;;;8.33;;
40116;SDS011;25829;50.228;18.936;2023-11-21T08:40:53;8.83;;;7.53;;
40116;SDS011;25829;50.228;18.936;2023-11-21T08:43:54;10.70;;;7.57;;
40116;SDS011;25829;50.228;18.936;2023-11-21T08:46:56;13.77;;;7.63;;
40116;SDS011;25829;50.228;18.936;2023-11-21T08:49:56;10.43;;;7.77;;
40116;SDS011;25829;50.228;18.936;2023-11-21T08:52:58;11.37;;;7.07;;
40116;SDS011;25829;50.228;18.936;2023-11-21T08:55:59;12.67;;;7.10;;
40116;SDS011;25829;50.228;18.936;2023-11-21T08:59:00;10.73;;;7.23;;
40116;SDS011;25829;50.228;18.936;2023-11-21T09:02:02;10.70;;;7.50;;
40116;SDS011;25829;50.228;18.936;2023-11-21T09:05:04;13.87;;;7.40;;
40116;SDS011;25829;50.228;18.936;2023-11-21T09:08:06;11.57;;;6.53;;
40116;SDS011;25829;50.228;18.936;2023-11-21T09:11:07;8.63;;;6.50;;
40116;SDS011;25829;50.228;18.936;2023-11-21T09:14:08;12.17;;;6.83;;
40116;SDS011;25829;50.228;18.936;2023-11-21T09:17:10;7.90;;;6.47;;
40116;SDS011;25829;50.228;18.936;2023-11-21T09:20:14;10.77;;;7.37;;
40116;SDS011;25829;50.228;18.936;2023-11-21T09:23:15;8.80;;;6.57;;
40116;SDS011;25829;50.228;18.936;2023-11-21T09:26:16;9.17;;;6.77;;
40116;SDS011;25829;50.228;18.936;2023-11-21T09:29:17;8.97;;;6.27;;
40116;SDS011;25829;50.228;18.936;2023-11-21T09:32:19;9.17;;;6.13;;
40116;SDS011;25829;50.228;18.936;2023-11-21T09:35:21;9.13;;;6.00;;
40116;SDS011;25829;50.228;18.936;2023-11-21T09:38:22;8.70;;;5.83;;
40116;SDS011;25829;50.228;18.936;2023-11-21T09:41:43;5.97;;;5.37;;
40116;SDS011;25829;50.228;18.936;2023-11-21T09:48:14;6.07;;;3.90;;
40116;SDS011;25829;50.228;18.936;2023-11-21T09:51:17;6.43;;;4.17;;
40116;SDS011;25829;50.228;18.936;2023-11-21T09:54:20;6.40;;;4.53;;
40116;SDS011;25829;50.228;18.936;2023-11-21T09:57:22;6.63;;;4.87;;
40116;SDS011;25829;50.228;18.936;2023-11-21T10:00:24;5.83;;;4.53;;
40116;SDS011;25829;50.228;18.936;2023-11-21T10:03:27;5.60;;;3.70;;
40116;SDS011;25829;50.228;18.936;2023-11-21T10:06:28;5.40;;;3.90;;
40116;SDS011;25829;50.228;18.936;2023-11-21T10:09:30;4.97;;;3.30;;
40116;SDS011;25829;50.228;18.936;2023-11-21T10:12:32;3.93;;;3.10;;
40116;SDS011;25829;50.228;18.936;2023-11-21T10:15:34;5.03;;;3.27;;
40116;SDS011;25829;50.228;18.936;2023-11-21T10:18:35;4.43;;;3.33;;
40116;SDS011;25829;50.228;18.936;2023-11-21T10:21:38;5.23;;;3.40;;
40116;SDS011;25829;50.228;18.936;2023-11-21T10:24:40;5.93;;;3.90;;
40116;SDS011;25829;50.228;18.936;2023-11-21T10:27:40;5.20;;;3.87;;
40116;SDS011;25829;50.228;18.936;2023-11-21T10:30:42;7.30;;;4.27;;
40116;SDS011;25829;50.228;18.936;2023-11-21T10:33:42;8.00;;;3.60;;
40116;SDS011;25829;50.228;18.936;2023-11-21T10:36:43;5.30;;;3.40;;
40116;SDS011;25829;50.228;18.936;2023-11-21T10:39:44;3.83;;;3.00;;
40116;SDS011;25829;50.228;18.936;2023-11-21T10:42:45;6.33;;;3.50;;
40116;SDS011;25829;50.228;18.936;2023-11-21T10:45:47;7.13;;;3.30;;
40116;SDS011;25829;50.228;18.936;2023-11-21T10:48:51;3.83;;;3.00;;
40116;SDS011;25829;50.228;18.936;2023-11-21T10:51:56;4.30;;;2.50;;
40116;SDS011;25829;50.228;18.936;2023-11-21T10:54:57;3.50;;;2.20;;
40116;SDS011;25829;50.228;18.936;2023-11-21T10:58:00;6.37;;;2.33;;
40116;SDS011;25829;50.228;18.936;2023-11-21T11:01:02;3.63;;;1.90;;
40116;SDS011;25829;50.228;18.936;2023-11-21T11:04:07;2.90;;;2.10;;
40116;SDS011;25829;50.228;18.936;2023-11-21T11:07:15;2.73;;;2.17;;
40116;SDS011;25829;50.228;18.936;2023-11-21T11:10:16;5.67;;;2.60;;
40116;SDS011;25829;50.228;18.936;2023-11-21T11:13:21;5.27;;;2.50;;
40116;SDS011;25829;50.228;18.936;2023-11-21T11:16:23;5.10;;;2.53;;
40116;SDS011;25829;50.228;18.936;2023-11-21T11:19:25;3.40;;;2.77;;
40116;SDS011;25829;50.228;18.936;2023-11-21T11:25:46;7.27;;;4.00;;
40116;SDS011;25829;50.228;18.936;2023-11-21T11:28:53;6.93;;;3.97;;
40116;SDS011;25829;50.228;18.936;2023-11-21T11:39:26;4.20;;;2.80;;
40116;SDS011;25829;50.228;18.936;2023-11-21T11:42:38;2.70;;;2.13;;
40116;SDS011;25829;50.228;18.936;2023-11-21T11:45:40;5.00;;;2.80;;
40116;SDS011;25829;50.228;18.936;2023-11-21T11:48:42;5.37;;;3.07;;
40116;SDS011;25829;50.228;18.936;2023-11-21T11:51:45;3.50;;;2.60;;
40116;SDS011;25829;50.228;18.936;2023-11-21T11:54:46;3.70;;;2.40;;
40116;SDS011;25829;50.228;18.936;2023-11-21T11:57:47;2.53;;;2.07;;
40116;SDS011;25829;50.228;18.936;2023-11-21T12:00:52;2.93;;;2.27;;
40116;SDS011;25829;50.228;18.936;2023-11-21T12:10:49;5.13;;;2.53;;
40116;SDS011;25829;50.228;18.936;2023-11-21T12:13:52;4.53;;;2.80;;
40116;SDS011;25829;50.228;18.936;2023-11-21T12:16:54;3.77;;;2.87;;
40116;SDS011;25829;50.228;18.936;2023-11-21T12:20:01;6.87;;;2.50;;
40116;SDS011;25829;50.228;18.936;2023-11-21T12:23:04;3.83;;;2.70;;
40116;SDS011;25829;50.228;18.936;2023-11-21T12:26:06;5.63;;;2.57;;
40116;SDS011;25829;50.228;18.936;2023-11-21T12:29:06;4.10;;;2.60;;
40116;SDS011;25829;50.228;18.936;2023-11-21T12:32:10;3.50;;;2.63;;
40116;SDS011;25829;50.228;18.936;2023-11-21T12:35:14;5.20;;;2.90;;
40116;SDS011;25829;50.228;18.936;2023-11-21T12:38:16;7.00;;;3.60;;
40116;SDS011;25829;50.228;18.936;2023-11-21T12:41:19;4.03;;;2.60;;
40116;SDS011;25829;50.228;18.936;2023-11-21T12:44:21;3.83;;;2.50;;
40116;SDS011;25829;50.228;18.936;2023-11-21T12:47:24;5.23;;;2.90;;
40116;SDS011;25829;50.228;18.936;2023-11-21T12:50:26;5.30;;;3.17;;
40116;SDS011;25829;50.228;18.936;2023-11-21T12:53:33;5.43;;;2.73;;
40116;SDS011;25829;50.228;18.936;2023-11-21T12:56:38;5.97;;;3.10;;
40116;SDS011;25829;50.228;18.936;2023-11-21T12:59:40;5.37;;;2.97;;
40116;SDS011;25829;50.228;18.936;2023-11-21T13:02:44;4.37;;;2.70;;
40116;SDS011;25829;50.228;18.936;2023-11-21T13:05:45;7.60;;;3.17;;
40116;SDS011;25829;50.228;18.936;2023-11-21T13:08:50;6.60;;;3.60;;
40116;SDS011;25829;50.228;18.936;2023-11-21T13:11:58;8.80;;;4.30;;
40116;SDS011;25829;50.228;18.936;2023-11-21T13:15:03;19.73;;;9.03;;
40116;SDS011;25829;50.228;18.936;2023-11-21T13:18:07;9.53;;;5.10;;
40116;SDS011;25829;50.228;18.936;2023-11-21T13:21:08;4.90;;;3.40;;
40116;SDS011;25829;50.228;18.936;2023-11-21T13:24:16;5.70;;;3.57;;
40116;SDS011;25829;50.228;18.936;2023-11-21T13:27:18;5.93;;;3.20;;
40116;SDS011;25829;50.228;18.936;2023-11-21T13:30:19;4.97;;;2.97;;
40116;SDS011;25829;50.228;18.936;2023-11-21T13:33:26;5.80;;;2.97;;
40116;SDS011;25829;50.228;18.936;2023-11-21T13:36:28;6.03;;;3.30;;
40116;SDS011;25829;50.228;18.936;2023-11-21T13:39:33;6.53;;;4.07;;
40116;SDS011;25829;50.228;18.936;2023-11-21T13:42:34;5.80;;;3.67;;
40116;SDS011;25829;50.228;18.936;2023-11-21T13:45:34;4.70;;;3.23;;
40116;SDS011;25829;50.228;18.936;2023-11-21T13:48:36;4.43;;;2.87;;
40116;SDS011;25829;50.228;18.936;2023-11-21T13:51:56;4.40;;;3.33;;
40116;SDS011;25829;50.228;18.936;2023-11-21T13:54:58;5.33;;;2.70;;
40116;SDS011;25829;50.228;18.936;2023-11-21T13:58:01;5.00;;;3.17;;
40116;SDS011;25829;50.228;18.936;2023-11-21T14:01:04;5.13;;;3.50;;
40116;SDS011;25829;50.228;18.936;2023-11-21T14:04:06;6.00;;;3.87;;
40116;SDS011;25829;50.228;18.936;2023-11-21T14:07:19;7.23;;;3.70;;
40116;SDS011;25829;50.228;18.936;2023-11-21T14:10:46;6.63;;;3.80;;
40116;SDS011;25829;50.228;18.936;2023-11-21T14:13:57;6.93;;;3.70;;
40116;SDS011;25829;50.228;18.936;2023-11-21T14:16:59;8.07;;;3.60;;
40116;SDS011;25829;50.228;18.936;2023-11-21T14:20:02;4.37;;;3.17;;
40116;SDS011;25829;50.228;18.936;2023-11-21T14:23:05;6.93;;;4.03;;
40116;SDS011;25829;50.228;18.936;2023-11-21T14:26:07;6.87;;;4.47;;
40116;SDS011;25829;50.228;18.936;2023-11-21T14:29:10;7.53;;;4.70;;
40116;SDS011;25829;50.228;18.936;2023-11-21T14:32:14;14.57;;;5.43;;
40116;SDS011;25829;50.228;18.936;2023-11-21T14:35:16;6.50;;;4.43;;
40116;SDS011;25829;50.228;18.936;2023-11-21T14:38:17;8.67;;;5.83;;
40116;SDS011;25829;50.228;18.936;2023-11-21T14:41:19;7.57;;;5.77;;
40116;SDS011;25829;50.228;18.936;2023-11-21T14:44:20;7.70;;;5.13;;
40116;SDS011;25829;50.228;18.936;2023-11-21T14:47:23;6.37;;;4.80;;
40116;SDS011;25829;50.228;18.936;2023-11-21T14:50:27;6.77;;;4.77;;
40116;SDS011;25829;50.228;18.936;2023-11-21T14:56:44;7.50;;;4.77;;
40116;SDS011;25829;50.228;18.936;2023-11-21T14:59:49;7.37;;;5.33;;
40116;SDS011;25829;50.228;18.936;2023-11-21T15:02:57;7.80;;;5.57;;
40116;SDS011;25829;50.228;18.936;2023-11-21T15:06:02;8.53;;;5.70;;
40116;SDS011;25829;50.228;18.936;2023-11-21T15:09:19;9.70;;;6.27;;
40116;SDS011;25829;50.228;18.936;2023-11-21T15:12:23;8.37;;;5.37;;
40116;SDS011;25829;50.228;18.936;2023-11-21T15:15:26;8.47;;;4.93;;
40116;SDS011;25829;50.228;18.936;2023-11-21T15:18:30;8.37;;;6.30;;
40116;SDS011;25829;50.228;18.936;2023-11-21T15:21:31;9.37;;;6.47;;
40116;SDS011;25829;50.228;18.936;2023-11-21T15:24:33;8.27;;;5.93;;
40116;SDS011;25829;50.228;18.936;2023-11-21T15:27:34;7.53;;;6.47;;
40116;SDS011;25829;50.228;18.936;2023-11-21T15:30:34;10.03;;;7.23;;
40116;SDS011;25829;50.228;18.936;2023-11-21T15:33:35;12.83;;;8.47;;
40116;SDS011;25829;50.228;18.936;2023-11-21T15:36:39;11.53;;;7.83;;
40116;SDS011;25829;50.228;18.936;2023-11-21T15:39:40;13.60;;;7.53;;
40116;SDS011;25829;50.228;18.936;2023-11-21T15:42:41;10.13;;;7.07;;
40116;SDS011;25829;50.228;18.936;2023-11-21T15:45:42;10.33;;;6.73;;
40116;SDS011;25829;50.228;18.936;2023-11-21T15:52:05;10.10;;;7.57;;
40116;SDS011;25829;50.228;18.936;2023-11-21T15:55:06;10.30;;;7.27;;
40116;SDS011;25829;50.228;18.936;2023-11-21T15:58:09;11.97;;;7.87;;
40116;SDS011;25829;50.228;18.936;2023-11-21T16:01:09;11.97;;;8.00;;
40116;SDS011;25829;50.228;18.936;2023-11-21T16:04:26;12.00;;;8.30;;
40116;SDS011;25829;50.228;18.936;2023-11-21T16:07:28;13.07;;;9.13;;
40116;SDS011;25829;50.228;18.936;2023-11-21T16:10:28;12.37;;;8.80;;
40116;SDS011;25829;50.228;18.936;2023-11-21T16:13:29;13.10;;;9.70;;
40116;SDS011;25829;50.228;18.936;2023-11-21T16:16:34;12.90;;;9.70;;
40116;SDS011;25829;50.228;18.936;2023-11-21T16:19:35;15.07;;;10.60;;
40116;SDS011;25829;50.228;18.936;2023-11-21T16:22:38;13.93;;;10.90;;
40116;SDS011;25829;50.228;18.936;2023-11-21T16:25:39;15.17;;;10.93;;
40116;SDS011;25829;50.228;18.936;2023-11-21T16:28:40;17.37;;;10.97;;
40116;SDS011;25829;50.228;18.936;2023-11-21T16:31:42;19.93;;;12.37;;
40116;SDS011;25829;50.228;18.936;2023-11-21T16:34:43;18.17;;;14.03;;
40116;SDS011;25829;50.228;18.936;2023-11-21T16:37:45;16.67;;;13.03;;
40116;SDS011;25829;50.228;18.936;2023-11-21T16:40:48;20.60;;;13.73;;
40116;SDS011;25829;50.228;18.936;2023-11-21T16:43:50;17.17;;;13.37;;
40116;SDS011;25829;50.228;18.936;2023-11-21T16:46:51;22.23;;;15.43;;
40116;SDS011;25829;50.228;18.936;2023-11-21T16:49:57;23.10;;;16.17;;
40116;SDS011;25829;50.228;18.936;2023-11-21T16:52:58;19.83;;;15.27;;
40116;SDS011;25829;50.228;18.936;2023-11-21T16:55:59;20.73;;;14.37;;
40116;SDS011;25829;50.228;18.936;2023-11-21T16:59:01;18.73;;;15.30;;
40116;SDS011;25829;50.228;18.936;2023-11-21T17:02:03;21.87;;;16.47;;
40116;SDS011;25829;50.228;18.936;2023-11-21T17:05:04;25.37;;;15.47;;
40116;SDS011;25829;50.228;18.936;2023-11-21T17:08:05;23.43;;;16.33;;
40116;SDS011;25829;50.228;18.936;2023-11-21T17:11:09;25.57;;;17.10;;
40116;SDS011;25829;50.228;18.936;2023-11-21T17:14:14;20.83;;;12.57;;
40116;SDS011;25829;50.228;18.936;2023-11-21T17:17:15;22.03;;;14.03;;
40116;SDS011;25829;50.228;18.936;2023-11-21T17:20:15;18.43;;;13.43;;
40116;SDS011;25829;50.228;18.936;2023-11-21T17:23:17;17.67;;;12.20;;
40116;SDS011;25829;50.228;18.936;2023-11-21T17:26:18;17.27;;;10.57;;
40116;SDS011;25829;50.228;18.936;2023-11-21T17:29:19;15.83;;;10.97;;
40116;SDS011;25829;50.228;18.936;2023-11-21T17:32:20;15.23;;;10.60;;
40116;SDS011;25829;50.228;18.936;2023-11-21T17:35:21;14.73;;;9.73;;
40116;SDS011;25829;50.228;18.936;2023-11-21T17:38:22;14.60;;;10.43;;
40116;SDS011;25829;50.228;18.936;2023-11-21T17:41:23;14.97;;;10.00;;
40116;SDS011;25829;50.228;18.936;2023-11-21T17:44:24;15.83;;;10.33;;
40116;SDS011;25829;50.228;18.936;2023-11-21T17:47:25;9.77;;;6.93;;
40116;SDS011;25829;50.228;18.936;2023-11-21T17:50:27;11.90;;;8.07;;
40116;SDS011;25829;50.228;18.936;2023-11-21T17:53:27;10.87;;;7.27;;
40116;SDS011;25829;50.228;18.936;2023-11-21T17:56:28;9.97;;;7.83;;
40116;SDS011;25829;50.228;18.936;2023-11-21T17:59:29;11.40;;;7.87;;
40116;SDS011;25829;50.228;18.936;2023-11-21T18:02:37;13.77;;;7.87;;
40116;SDS011;25829;50.228;18.936;2023-11-21T18:05:38;11.00;;;8.07;;
40116;SDS011;25829;50.228;18.936;2023-11-21T18:08:38;10.77;;;7.83;;
40116;SDS011;25829;50.228;18.936;2023-11-21T18:11:40;12.10;;;8.17;;
40116;SDS011;25829;50.228;18.936;2023-11-21T18:14:41;11.83;;;8.97;;
40116;SDS011;25829;50.228;18.936;2023-11-21T18:17:44;11.13;;;7.87;;
40116;SDS011;25829;50.228;18.936;2023-11-21T18:20:45;12.50;;;8.33;;
40116;SDS011;25829;50.228;18.936;2023-11-21T18:23:46;14.20;;;8.50;;
40116;SDS011;25829;50.228;18.936;2023-11-21T18:26:47;9.83;;;7.53;;
40116;SDS011;25829;50.228;18.936;2023-11-21T18:29:48;12.30;;;8.37;;
40116;SDS011;25829;50.228;18.936;2023-11-21T18:32:48;11.27;;;7.63;;
40116;SDS011;25829;50.228;18.936;2023-11-21T18:35:49;10.87;;;7.43;;
40116;SDS011;25829;50.228;18.936;2023-11-21T18:38:50;8.47;;;6.97;;
40116;SDS011;25829;50.228;18.936;2023-11-21T18:41:51;8.33;;;6.83;;
40116;SDS011;25829;50.228;18.936;2023-11-21T18:44:52;10.03;;;6.33;;
40116;SDS011;25829;50.228;18.936;2023-11-21T18:47:53;8.83;;;6.33;;